KMTJ/MTJ METAR and TAF weather

Enter ICAO airport designator
Station Type Date Time Source
KMTJ METAR 2019/11/18 13:53 UTC NOAA

KMTJ 181353Z AUTO 15005KT 10SM CLR M03/M07 A3025 RMK AO2 SLP246 T10331072 $


Station Type Date Time Source
KMTJ Decoded METAR 2019/11/18 13:53 UTC NOAA

MONTROSE REGIONAL AIRPORT, CO, United States (KMTJ) 38-30N 107-54W 1750M
Nov 18, 2019 - 08:53 AM EST / 2019.11.18 1353 UTC
Wind: from the SSE (150 degrees) at 6 MPH (5 KT):0
Visibility: 10 mile(s):0
Sky conditions: clear
Temperature: 26.1 F (-3.3 C)
Windchill: 19 F (-7 C):1
Dew Point: 19.0 F (-7.2 C)
Relative Humidity: 74%
Pressure (altimeter): 30.25 in. Hg (1024 hPa)
ob: KMTJ 181353Z AUTO 15005KT 10SM CLR M03/M07 A3025 RMK AO2 SLP246 T10331072
cycle: 14

Station Type Date Time Source
KMTJ TAF 2019/11/18 12:24 UTC NOAA

TAF KMTJ 181122Z 1812/1912 15006KT P6SM FEW250
FM181700 34003KT P6SM FEW250
FM190100 14005KT P6SM FEW250

Example: see airport list